sensor_id;sensor_type;location;lat;lon;timestamp;P1;durP1;ratioP1;P2;durP2;ratioP2
3175;SDS011;1599;51.564;6.990;2023-03-20T00:01:31;31.90;;;18.90;;
3175;SDS011;1599;51.564;6.990;2023-03-20T00:03:57;33.97;;;20.40;;
3175;SDS011;1599;51.564;6.990;2023-03-20T00:06:26;34.37;;;19.50;;
3175;SDS011;1599;51.564;6.990;2023-03-20T00:08:55;33.33;;;19.30;;
3175;SDS011;1599;51.564;6.990;2023-03-20T00:13:58;36.20;;;19.93;;
3175;SDS011;1599;51.564;6.990;2023-03-20T00:16:28;33.53;;;19.80;;
3175;SDS011;1599;51.564;6.990;2023-03-20T00:18:56;37.00;;;20.20;;
3175;SDS011;1599;51.564;6.990;2023-03-20T00:21:22;32.50;;;18.53;;
3175;SDS011;1599;51.564;6.990;2023-03-20T00:23:48;33.57;;;19.03;;
3175;SDS011;1599;51.564;6.990;2023-03-20T00:26:15;41.93;;;20.73;;
3175;SDS011;1599;51.564;6.990;2023-03-20T00:28:45;37.50;;;18.53;;
3175;SDS011;1599;51.564;6.990;2023-03-20T00:31:25;41.07;;;19.73;;
3175;SDS011;1599;51.564;6.990;2023-03-20T00:33:58;35.00;;;19.43;;
3175;SDS011;1599;51.564;6.990;2023-03-20T00:36:25;29.00;;;17.63;;
3175;SDS011;1599;51.564;6.990;2023-03-20T00:38:51;33.57;;;18.83;;
3175;SDS011;1599;51.564;6.990;2023-03-20T00:41:29;31.70;;;17.97;;
3175;SDS011;1599;51.564;6.990;2023-03-20T00:46:55;35.47;;;16.90;;
3175;SDS011;1599;51.564;6.990;2023-03-20T00:49:27;30.17;;;18.07;;
3175;SDS011;1599;51.564;6.990;2023-03-20T00:51:54;32.13;;;16.90;;
3175;SDS011;1599;51.564;6.990;2023-03-20T00:54:20;28.87;;;15.87;;
3175;SDS011;1599;51.564;6.990;2023-03-20T00:56:49;31.07;;;17.20;;
3175;SDS011;1599;51.564;6.990;2023-03-20T00:59:23;30.20;;;16.80;;
3175;SDS011;1599;51.564;6.990;2023-03-20T01:01:53;29.33;;;16.83;;
3175;SDS011;1599;51.564;6.990;2023-03-20T01:04:19;31.57;;;16.40;;
3175;SDS011;1599;51.564;6.990;2023-03-20T01:06:46;32.07;;;15.40;;
3175;SDS011;1599;51.564;6.990;2023-03-20T01:09:12;25.50;;;14.37;;
3175;SDS011;1599;51.564;6.990;2023-03-20T01:11:37;27.17;;;14.27;;
3175;SDS011;1599;51.564;6.990;2023-03-20T01:14:04;25.23;;;16.13;;
3175;SDS011;1599;51.564;6.990;2023-03-20T01:16:30;24.30;;;13.60;;
3175;SDS011;1599;51.564;6.990;2023-03-20T01:18:56;27.30;;;14.40;;
3175;SDS011;1599;51.564;6.990;2023-03-20T01:21:21;29.00;;;16.00;;
3175;SDS011;1599;51.564;6.990;2023-03-20T01:23:47;23.10;;;14.03;;
3175;SDS011;1599;51.564;6.990;2023-03-20T01:26:19;22.90;;;12.83;;
3175;SDS011;1599;51.564;6.990;2023-03-20T01:28:51;22.00;;;13.37;;
3175;SDS011;1599;51.564;6.990;2023-03-20T01:31:17;24.67;;;12.83;;
3175;SDS011;1599;51.564;6.990;2023-03-20T01:33:43;22.77;;;13.63;;
3175;SDS011;1599;51.564;6.990;2023-03-20T01:36:10;22.97;;;12.60;;
3175;SDS011;1599;51.564;6.990;2023-03-20T01:38:37;21.13;;;12.80;;
3175;SDS011;1599;51.564;6.990;2023-03-20T01:41:24;23.03;;;13.13;;
3175;SDS011;1599;51.564;6.990;2023-03-20T01:43:49;21.63;;;11.73;;
3175;SDS011;1599;51.564;6.990;2023-03-20T01:46:30;21.97;;;12.80;;
3175;SDS011;1599;51.564;6.990;2023-03-20T01:51:43;21.87;;;12.87;;
3175;SDS011;1599;51.564;6.990;2023-03-20T01:54:17;19.57;;;12.17;;
3175;SDS011;1599;51.564;6.990;2023-03-20T01:59:30;24.20;;;12.80;;
3175;SDS011;1599;51.564;6.990;2023-03-20T02:02:01;27.27;;;13.63;;
3175;SDS011;1599;51.564;6.990;2023-03-20T02:04:30;23.43;;;12.93;;
3175;SDS011;1599;51.564;6.990;2023-03-20T02:06:58;24.00;;;13.67;;
3175;SDS011;1599;51.564;6.990;2023-03-20T02:09:24;26.00;;;14.67;;
3175;SDS011;1599;51.564;6.990;2023-03-20T02:11:50;22.23;;;12.70;;
3175;SDS011;1599;51.564;6.990;2023-03-20T02:14:16;24.00;;;13.50;;
3175;SDS011;1599;51.564;6.990;2023-03-20T02:16:42;19.43;;;12.17;;
3175;SDS011;1599;51.564;6.990;2023-03-20T02:19:09;19.50;;;11.60;;
3175;SDS011;1599;51.564;6.990;2023-03-20T02:22:00;22.63;;;12.50;;
3175;SDS011;1599;51.564;6.990;2023-03-20T02:27:43;28.57;;;14.10;;
3175;SDS011;1599;51.564;6.990;2023-03-20T02:30:19;19.80;;;12.40;;
3175;SDS011;1599;51.564;6.990;2023-03-20T02:33:44;20.83;;;11.80;;
3175;SDS011;1599;51.564;6.990;2023-03-20T02:39:27;19.43;;;10.87;;
3175;SDS011;1599;51.564;6.990;2023-03-20T03:00:02;14.37;;;9.67;;
3175;SDS011;1599;51.564;6.990;2023-03-20T03:06:29;15.63;;;9.00;;
3175;SDS011;1599;51.564;6.990;2023-03-20T03:19:50;13.00;;;8.17;;
3175;SDS011;1599;51.564;6.990;2023-03-20T03:22:25;14.73;;;7.63;;
3175;SDS011;1599;51.564;6.990;2023-03-20T03:25:03;14.83;;;8.60;;
3175;SDS011;1599;51.564;6.990;2023-03-20T04:01:06;9.30;;;5.50;;
3175;SDS011;1599;51.564;6.990;2023-03-20T04:14:01;8.70;;;4.50;;
3175;SDS011;1599;51.564;6.990;2023-03-20T04:17:36;11.37;;;7.17;;
3175;SDS011;1599;51.564;6.990;2023-03-20T04:31:05;18.13;;;6.67;;
3175;SDS011;1599;51.564;6.990;2023-03-20T04:34:01;11.70;;;6.90;;
3175;SDS011;1599;51.564;6.990;2023-03-20T04:37:25;12.93;;;6.80;;
3175;SDS011;1599;51.564;6.990;2023-03-20T04:40:17;12.47;;;6.73;;
3175;SDS011;1599;51.564;6.990;2023-03-20T04:42:46;18.73;;;7.40;;
3175;SDS011;1599;51.564;6.990;2023-03-20T04:45:21;13.17;;;7.40;;
3175;SDS011;1599;51.564;6.990;2023-03-20T04:48:20;15.90;;;9.30;;
3175;SDS011;1599;51.564;6.990;2023-03-20T04:51:08;17.07;;;9.37;;
3175;SDS011;1599;51.564;6.990;2023-03-20T04:53:36;13.27;;;8.17;;
3175;SDS011;1599;51.564;6.990;2023-03-20T04:56:03;18.13;;;8.40;;
3175;SDS011;1599;51.564;6.990;2023-03-20T05:02:27;18.70;;;10.43;;
3175;SDS011;1599;51.564;6.990;2023-03-20T05:05:21;17.13;;;9.13;;
3175;SDS011;1599;51.564;6.990;2023-03-20T05:07:47;18.90;;;10.13;;
3175;SDS011;1599;51.564;6.990;2023-03-20T05:10:13;21.80;;;11.30;;
3175;SDS011;1599;51.564;6.990;2023-03-20T05:12:40;20.27;;;9.50;;
3175;SDS011;1599;51.564;6.990;2023-03-20T05:15:07;19.23;;;9.60;;
3175;SDS011;1599;51.564;6.990;2023-03-20T05:38:13;24.43;;;10.33;;
3175;SDS011;1599;51.564;6.990;2023-03-20T05:51:50;30.50;;;14.83;;
3175;SDS011;1599;51.564;6.990;2023-03-20T05:54:57;34.17;;;15.00;;
3175;SDS011;1599;51.564;6.990;2023-03-20T05:57:27;33.20;;;16.00;;
3175;SDS011;1599;51.564;6.990;2023-03-20T06:07:51;25.50;;;12.93;;
3175;SDS011;1599;51.564;6.990;2023-03-20T07:17:45;19.13;;;8.90;;
3175;SDS011;1599;51.564;6.990;2023-03-20T07:34:11;10.63;;;5.60;;
3175;SDS011;1599;51.564;6.990;2023-03-20T07:37:38;9.80;;;5.07;;
3175;SDS011;1599;51.564;6.990;2023-03-20T07:43:41;10.50;;;5.70;;
3175;SDS011;1599;51.564;6.990;2023-03-20T07:56:03;11.23;;;6.53;;
3175;SDS011;1599;51.564;6.990;2023-03-20T08:06:00;16.87;;;8.10;;
3175;SDS011;1599;51.564;6.990;2023-03-20T08:22:19;16.27;;;10.07;;
3175;SDS011;1599;51.564;6.990;2023-03-20T08:24:45;18.53;;;9.67;;
3175;SDS011;1599;51.564;6.990;2023-03-20T08:58:17;11.10;;;5.07;;
3175;SDS011;1599;51.564;6.990;2023-03-20T09:12:10;10.00;;;5.30;;
3175;SDS011;1599;51.564;6.990;2023-03-20T09:25:19;13.07;;;4.30;;
3175;SDS011;1599;51.564;6.990;2023-03-20T09:31:10;5.70;;;3.17;;
3175;SDS011;1599;51.564;6.990;2023-03-20T09:33:37;9.80;;;3.80;;
3175;SDS011;1599;51.564;6.990;2023-03-20T09:36:03;9.33;;;4.00;;
3175;SDS011;1599;51.564;6.990;2023-03-20T09:38:30;5.67;;;3.20;;
3175;SDS011;1599;51.564;6.990;2023-03-20T09:40:57;4.30;;;2.93;;
3175;SDS011;1599;51.564;6.990;2023-03-20T09:46:18;6.77;;;3.13;;
3175;SDS011;1599;51.564;6.990;2023-03-20T09:49:08;11.00;;;3.70;;
3175;SDS011;1599;51.564;6.990;2023-03-20T09:54:32;7.03;;;3.20;;
3175;SDS011;1599;51.564;6.990;2023-03-20T09:57:01;6.10;;;3.60;;
3175;SDS011;1599;51.564;6.990;2023-03-20T09:59:28;6.63;;;2.97;;
3175;SDS011;1599;51.564;6.990;2023-03-20T10:02:17;5.70;;;3.00;;
3175;SDS011;1599;51.564;6.990;2023-03-20T10:04:48;7.23;;;2.57;;
3175;SDS011;1599;51.564;6.990;2023-03-20T10:07:18;10.37;;;2.80;;
3175;SDS011;1599;51.564;6.990;2023-03-20T10:09:45;10.00;;;2.57;;
3175;SDS011;1599;51.564;6.990;2023-03-20T10:18:23;8.17;;;3.20;;
3175;SDS011;1599;51.564;6.990;2023-03-20T10:26:10;5.07;;;3.13;;
3175;SDS011;1599;51.564;6.990;2023-03-20T10:36:52;7.50;;;3.30;;
3175;SDS011;1599;51.564;6.990;2023-03-20T10:39:44;4.60;;;3.07;;
3175;SDS011;1599;51.564;6.990;2023-03-20T10:42:23;4.67;;;3.20;;
3175;SDS011;1599;51.564;6.990;2023-03-20T10:45:01;5.67;;;2.70;;
3175;SDS011;1599;51.564;6.990;2023-03-20T10:47:29;8.20;;;3.53;;
3175;SDS011;1599;51.564;6.990;2023-03-20T10:50:01;6.40;;;3.13;;
3175;SDS011;1599;51.564;6.990;2023-03-20T10:52:31;6.73;;;3.20;;
3175;SDS011;1599;51.564;6.990;2023-03-20T10:55:07;6.57;;;2.80;;
3175;SDS011;1599;51.564;6.990;2023-03-20T10:57:43;4.60;;;2.80;;
3175;SDS011;1599;51.564;6.990;2023-03-20T11:00:13;8.83;;;3.60;;
3175;SDS011;1599;51.564;6.990;2023-03-20T11:02:43;8.10;;;2.80;;
3175;SDS011;1599;51.564;6.990;2023-03-20T11:05:29;7.30;;;3.43;;
3175;SDS011;1599;51.564;6.990;2023-03-20T11:08:06;6.40;;;3.10;;
3175;SDS011;1599;51.564;6.990;2023-03-20T11:10:34;7.40;;;3.10;;
3175;SDS011;1599;51.564;6.990;2023-03-20T11:15:55;7.40;;;3.50;;
3175;SDS011;1599;51.564;6.990;2023-03-20T11:18:24;5.30;;;2.60;;
3175;SDS011;1599;51.564;6.990;2023-03-20T11:23:18;15.13;;;3.53;;
3175;SDS011;1599;51.564;6.990;2023-03-20T11:25:49;5.20;;;2.53;;
3175;SDS011;1599;51.564;6.990;2023-03-20T11:34:19;5.30;;;3.20;;
3175;SDS011;1599;51.564;6.990;2023-03-20T11:36:58;8.27;;;2.70;;
3175;SDS011;1599;51.564;6.990;2023-03-20T11:39:28;7.20;;;3.70;;
3175;SDS011;1599;51.564;6.990;2023-03-20T11:42:00;6.53;;;2.73;;
3175;SDS011;1599;51.564;6.990;2023-03-20T11:44:33;6.47;;;2.50;;
3175;SDS011;1599;51.564;6.990;2023-03-20T11:47:04;6.10;;;2.87;;
3175;SDS011;1599;51.564;6.990;2023-03-20T11:49:45;6.73;;;2.67;;
3175;SDS011;1599;51.564;6.990;2023-03-20T11:52:16;3.80;;;2.33;;
3175;SDS011;1599;51.564;6.990;2023-03-20T11:54:50;7.47;;;3.43;;
3175;SDS011;1599;51.564;6.990;2023-03-20T11:57:31;5.63;;;2.90;;
3175;SDS011;1599;51.564;6.990;2023-03-20T12:02:35;4.27;;;2.53;;
3175;SDS011;1599;51.564;6.990;2023-03-20T12:05:02;10.20;;;4.07;;
3175;SDS011;1599;51.564;6.990;2023-03-20T12:07:43;5.60;;;2.50;;
3175;SDS011;1599;51.564;6.990;2023-03-20T12:10:11;6.13;;;2.50;;
3175;SDS011;1599;51.564;6.990;2023-03-20T12:12:49;3.90;;;2.03;;
3175;SDS011;1599;51.564;6.990;2023-03-20T12:15:29;4.73;;;2.30;;
3175;SDS011;1599;51.564;6.990;2023-03-20T12:18:04;8.00;;;2.80;;
3175;SDS011;1599;51.564;6.990;2023-03-20T12:20:34;10.40;;;2.73;;
3175;SDS011;1599;51.564;6.990;2023-03-20T12:28:23;4.67;;;2.60;;
3175;SDS011;1599;51.564;6.990;2023-03-20T12:33:56;7.90;;;3.20;;
3175;SDS011;1599;51.564;6.990;2023-03-20T12:36:44;8.83;;;3.40;;
3175;SDS011;1599;51.564;6.990;2023-03-20T12:39:11;6.60;;;4.40;;
3175;SDS011;1599;51.564;6.990;2023-03-20T12:41:44;5.63;;;3.10;;
3175;SDS011;1599;51.564;6.990;2023-03-20T12:50:01;6.83;;;3.13;;
3175;SDS011;1599;51.564;6.990;2023-03-20T12:55:41;12.27;;;3.17;;
3175;SDS011;1599;51.564;6.990;2023-03-20T13:01:55;4.17;;;2.60;;
3175;SDS011;1599;51.564;6.990;2023-03-20T13:04:43;3.50;;;2.67;;
3175;SDS011;1599;51.564;6.990;2023-03-20T13:10:11;9.60;;;3.53;;
3175;SDS011;1599;51.564;6.990;2023-03-20T13:16:19;4.83;;;3.00;;
3175;SDS011;1599;51.564;6.990;2023-03-20T13:18:46;5.23;;;3.70;;
3175;SDS011;1599;51.564;6.990;2023-03-20T13:21:28;8.57;;;4.90;;
3175;SDS011;1599;51.564;6.990;2023-03-20T13:29:51;8.90;;;4.60;;
3175;SDS011;1599;51.564;6.990;2023-03-20T13:32:38;7.83;;;4.90;;
3175;SDS011;1599;51.564;6.990;2023-03-20T13:37:50;10.60;;;4.70;;
3175;SDS011;1599;51.564;6.990;2023-03-20T13:40:23;7.53;;;5.67;;
3175;SDS011;1599;51.564;6.990;2023-03-20T13:42:53;9.67;;;6.00;;
3175;SDS011;1599;51.564;6.990;2023-03-20T13:45:30;10.80;;;5.73;;
3175;SDS011;1599;51.564;6.990;2023-03-20T13:48:02;7.20;;;4.93;;
3175;SDS011;1599;51.564;6.990;2023-03-20T13:53:43;7.90;;;6.17;;
3175;SDS011;1599;51.564;6.990;2023-03-20T14:04:16;8.53;;;5.17;;
3175;SDS011;1599;51.564;6.990;2023-03-20T14:09:34;8.27;;;4.47;;
3175;SDS011;1599;51.564;6.990;2023-03-20T14:12:05;5.90;;;4.57;;
3175;SDS011;1599;51.564;6.990;2023-03-20T14:14:49;14.60;;;5.20;;
3175;SDS011;1599;51.564;6.990;2023-03-20T14:17:19;7.97;;;4.77;;
3175;SDS011;1599;51.564;6.990;2023-03-20T14:20:11;7.70;;;3.93;;
3175;SDS011;1599;51.564;6.990;2023-03-20T14:22:48;9.60;;;4.33;;
3175;SDS011;1599;51.564;6.990;2023-03-20T14:25:16;8.20;;;5.40;;
3175;SDS011;1599;51.564;6.990;2023-03-20T14:30:49;9.57;;;5.50;;
3175;SDS011;1599;51.564;6.990;2023-03-20T14:35:47;9.70;;;5.07;;
3175;SDS011;1599;51.564;6.990;2023-03-20T14:41:10;8.73;;;5.17;;
3175;SDS011;1599;51.564;6.990;2023-03-20T14:49:23;10.50;;;5.60;;
3175;SDS011;1599;51.564;6.990;2023-03-20T14:54:51;9.50;;;5.30;;
3175;SDS011;1599;51.564;6.990;2023-03-20T14:57:20;10.47;;;5.30;;
3175;SDS011;1599;51.564;6.990;2023-03-20T14:59:54;7.60;;;4.53;;
3175;SDS011;1599;51.564;6.990;2023-03-20T15:02:26;8.27;;;4.20;;
3175;SDS011;1599;51.564;6.990;2023-03-20T15:04:56;6.30;;;4.03;;
3175;SDS011;1599;51.564;6.990;2023-03-20T15:07:27;11.97;;;4.90;;
3175;SDS011;1599;51.564;6.990;2023-03-20T15:09:56;12.07;;;4.30;;
3175;SDS011;1599;51.564;6.990;2023-03-20T15:12:26;7.83;;;4.10;;
3175;SDS011;1599;51.564;6.990;2023-03-20T15:17:25;14.13;;;5.30;;
3175;SDS011;1599;51.564;6.990;2023-03-20T15:20:02;10.47;;;4.60;;
3175;SDS011;1599;51.564;6.990;2023-03-20T15:22:52;11.93;;;5.00;;
3175;SDS011;1599;51.564;6.990;2023-03-20T15:25:22;10.93;;;5.40;;
3175;SDS011;1599;51.564;6.990;2023-03-20T15:27:52;10.77;;;6.10;;
3175;SDS011;1599;51.564;6.990;2023-03-20T15:30:19;10.07;;;5.40;;
3175;SDS011;1599;51.564;6.990;2023-03-20T15:32:46;13.70;;;5.33;;
3175;SDS011;1599;51.564;6.990;2023-03-20T15:35:17;9.20;;;5.47;;
3175;SDS011;1599;51.564;6.990;2023-03-20T15:37:45;11.00;;;5.53;;
3175;SDS011;1599;51.564;6.990;2023-03-20T15:40:13;10.40;;;6.60;;
3175;SDS011;1599;51.564;6.990;2023-03-20T15:42:58;10.33;;;5.43;;
3175;SDS011;1599;51.564;6.990;2023-03-20T15:45:32;12.33;;;5.30;;
3175;SDS011;1599;51.564;6.990;2023-03-20T15:48:20;7.00;;;5.20;;
3175;SDS011;1599;51.564;6.990;2023-03-20T15:50:47;17.50;;;7.57;;
3175;SDS011;1599;51.564;6.990;2023-03-20T15:53:37;8.20;;;5.83;;
3175;SDS011;1599;51.564;6.990;2023-03-20T15:58:35;10.83;;;6.13;;
3175;SDS011;1599;51.564;6.990;2023-03-20T16:01:01;9.80;;;6.00;;
3175;SDS011;1599;51.564;6.990;2023-03-20T16:03:28;12.13;;;5.80;;
3175;SDS011;1599;51.564;6.990;2023-03-20T16:05:54;9.83;;;5.60;;
3175;SDS011;1599;51.564;6.990;2023-03-20T16:08:24;11.53;;;6.40;;
3175;SDS011;1599;51.564;6.990;2023-03-20T16:10:58;7.87;;;5.60;;
3175;SDS011;1599;51.564;6.990;2023-03-20T16:13:30;12.23;;;6.13;;
3175;SDS011;1599;51.564;6.990;2023-03-20T16:15:58;16.37;;;6.17;;
3175;SDS011;1599;51.564;6.990;2023-03-20T16:21:37;10.80;;;5.63;;
3175;SDS011;1599;51.564;6.990;2023-03-20T16:24:08;11.33;;;6.67;;
3175;SDS011;1599;51.564;6.990;2023-03-20T16:26:40;9.50;;;5.20;;
3175;SDS011;1599;51.564;6.990;2023-03-20T16:29:08;13.27;;;6.63;;
3175;SDS011;1599;51.564;6.990;2023-03-20T16:31:39;15.27;;;8.77;;
3175;SDS011;1599;51.564;6.990;2023-03-20T16:34:10;17.90;;;6.63;;
3175;SDS011;1599;51.564;6.990;2023-03-20T16:36:47;12.03;;;6.03;;
3175;SDS011;1599;51.564;6.990;2023-03-20T16:39:24;9.00;;;6.07;;
